Bullfrog, Utah
Current Conditions -  °F | °C
As of 1:55 PM on Tuesday 25 Nov 2014 (Local Time) from KBDG Reporting Station
Clear Clear  
Wind Chill: 37°   Ceiling: Unl
Heat Index: 41°   Visibility: 10mi
Dew Point:   Wind: 6mph
Humidity: 23%   Direction: 160°SSE
Pressure: 30.41"   Gusts: NA
Location:  37.6208°N, 109.479°W
Report Text: KBDG 252055Z AUTO 16005KT 10SM CLR 05/M15 A3041 RMK AO1 T00491146
Loading
Personal Weather Stations






























Interactive Weather Map New forecast layout! Learn more

10-Day Weather Forecast

Advertisements
Track Severe Weather on mobile